createdAt,value
2019-02-25T00:00:44.265Z,17.67
2019-02-25T00:03:15.097Z,16.53
2019-02-25T00:05:57.917Z,16.43
2019-02-25T00:08:29.485Z,16.97
2019-02-25T00:11:05.688Z,15.30
2019-02-25T00:13:40.237Z,15.83
2019-02-25T00:16:13.681Z,15.27
2019-02-25T00:18:43.590Z,16.27
2019-02-25T00:21:20.499Z,16.40
2019-02-25T00:23:54.188Z,16.87
2019-02-25T00:26:27.546Z,15.73
2019-02-25T00:29:00.702Z,16.07
2019-02-25T00:31:32.146Z,15.17
2019-02-25T00:34:01.854Z,15.63
2019-02-25T00:36:32.021Z,16.00
2019-02-25T00:39:04.350Z,16.20
2019-02-25T00:41:33.612Z,14.97
2019-02-25T00:44:06.257Z,15.23
2019-02-25T00:46:36.033Z,17.70
2019-02-25T00:49:06.129Z,16.90
2019-02-25T00:51:37.026Z,16.17
2019-02-25T00:54:07.759Z,15.73
2019-02-25T00:56:37.984Z,16.80
2019-02-25T00:59:07.629Z,15.33
2019-02-25T01:01:40.264Z,15.40
2019-02-25T01:04:09.946Z,17.17
2019-02-25T01:06:40.104Z,15.33
2019-02-25T01:09:11.616Z,14.70
2019-02-25T01:11:41.902Z,15.43
2019-02-25T01:14:12.866Z,15.53
2019-02-25T01:16:42.562Z,16.27
2019-02-25T01:19:12.713Z,15.63
2019-02-25T01:21:42.281Z,14.60
2019-02-25T01:24:12.266Z,14.93
2019-02-25T01:26:41.976Z,18.13
2019-02-25T01:29:13.011Z,15.10
2019-02-25T01:31:43.660Z,14.40
2019-02-25T01:42:27.203Z,15.43
2019-02-25T01:45:00.368Z,15.80
2019-02-25T01:47:30.033Z,16.37
2019-02-25T01:50:03.232Z,15.30
2019-02-25T01:52:47.648Z,16.27
2019-02-25T01:55:28.994Z,15.70
2019-02-25T01:58:01.579Z,15.23
2019-02-25T02:00:45.423Z,15.67
2019-02-25T02:03:17.969Z,16.20
2019-02-25T02:05:48.342Z,15.70
2019-02-25T02:08:18.764Z,15.30
2019-02-25T02:10:57.340Z,14.60
2019-02-25T02:13:34.318Z,15.63
2019-02-25T02:16:05.872Z,17.13
2019-02-25T02:18:39.060Z,15.30
2019-02-25T02:21:23.262Z,15.83
2019-02-25T02:23:59.015Z,14.73
2019-02-25T02:26:33.139Z,16.40
2019-02-25T02:29:04.998Z,15.63
2019-02-25T02:31:42.030Z,15.20
2019-02-25T02:34:19.452Z,15.93
2019-02-25T02:36:52.536Z,16.27
2019-02-25T02:39:22.317Z,16.27
2019-02-25T02:42:19.879Z,14.93
2019-02-25T02:45:14.373Z,15.30
2019-02-25T02:48:34.526Z,17.37
2019-02-25T02:51:04.655Z,15.37
2019-02-25T02:53:34.766Z,15.47
2019-02-25T02:56:04.512Z,16.17
2019-02-25T02:58:36.180Z,15.80
2019-02-25T03:01:08.690Z,16.20
2019-02-25T03:03:38.704Z,15.83
2019-02-25T03:06:08.605Z,16.93
2019-02-25T03:08:38.327Z,16.13
2019-02-25T03:11:07.916Z,16.87
2019-02-25T03:13:40.420Z,16.63
2019-02-25T03:16:10.135Z,15.90
2019-02-25T03:18:40.309Z,14.83
2019-02-25T03:21:10.080Z,14.63
2019-02-25T03:23:42.639Z,15.50
2019-02-25T03:26:12.443Z,15.50
2019-02-25T03:28:42.283Z,14.97
2019-02-25T03:31:13.425Z,15.80
2019-02-25T03:33:46.144Z,15.60
2019-02-25T03:36:20.838Z,15.70
2019-02-25T03:38:56.035Z,14.60
2019-02-25T03:41:28.354Z,15.10
2019-02-25T03:43:58.674Z,14.97
2019-02-25T03:46:29.898Z,15.73
2019-02-25T03:49:01.499Z,14.73
2019-02-25T03:51:31.451Z,14.10
2019-02-25T03:54:02.343Z,13.83
2019-02-25T03:56:34.175Z,14.30
2019-02-25T03:59:05.159Z,14.47
2019-02-25T04:01:34.790Z,11.13
2019-02-25T04:04:08.083Z,12.53
2019-02-25T04:06:43.041Z,12.33
2019-02-25T04:09:13.232Z,12.27
2019-02-25T04:11:43.360Z,11.93
2019-02-25T04:14:13.375Z,13.03
2019-02-25T04:16:46.471Z,11.37
2019-02-25T04:19:16.115Z,12.00
2019-02-25T04:21:45.761Z,13.40
2019-02-25T04:24:16.617Z,12.53
2019-02-25T04:26:47.288Z,12.47
2019-02-25T04:29:17.934Z,15.60
2019-02-25T04:31:48.263Z,12.33
2019-02-25T04:34:21.028Z,11.67
2019-02-25T04:36:50.858Z,12.73
2019-02-25T04:39:22.000Z,12.27
2019-02-25T04:41:53.170Z,12.17
2019-02-25T04:44:25.696Z,11.67
2019-02-25T04:47:02.598Z,11.90
2019-02-25T04:49:34.163Z,12.80
2019-02-25T04:52:07.937Z,12.10
2019-02-25T04:54:47.655Z,12.80
2019-02-25T04:57:28.349Z,11.83
2019-02-25T05:00:02.333Z,12.20
2019-02-25T05:02:33.272Z,12.97
2019-02-25T05:05:05.394Z,12.43
2019-02-25T05:07:35.836Z,12.80
2019-02-25T05:10:07.117Z,12.63
2019-02-25T05:12:37.475Z,12.07
2019-02-25T05:15:08.230Z,13.00
2019-02-25T05:17:38.157Z,12.57
2019-02-25T05:20:07.732Z,11.97
2019-02-25T05:22:41.005Z,12.83
2019-02-25T05:25:11.801Z,13.30
2019-02-25T05:27:42.262Z,12.43
2019-02-25T05:30:12.537Z,12.47
2019-02-25T05:32:42.895Z,13.30
2019-02-25T05:35:13.021Z,13.53
2019-02-25T05:37:44.428Z,12.53
2019-02-25T05:40:15.252Z,13.37
2019-02-25T05:42:45.606Z,12.07
2019-02-25T05:45:16.343Z,12.30
2019-02-25T05:47:47.166Z,13.20
2019-02-25T05:50:17.337Z,12.80
2019-02-25T05:52:50.557Z,13.93
2019-02-25T05:55:20.789Z,13.37
2019-02-25T05:57:51.875Z,12.93
2019-02-25T06:00:24.013Z,14.13
2019-02-25T06:03:00.893Z,14.30
2019-02-25T06:05:40.202Z,12.67
2019-02-25T06:08:12.487Z,13.23
2019-02-25T06:10:42.893Z,13.27
2019-02-25T06:13:12.567Z,13.43
2019-02-25T06:15:42.636Z,13.20
2019-02-25T06:18:12.321Z,12.77
2019-02-25T06:20:44.011Z,13.00
2019-02-25T06:23:18.414Z,13.73
2019-02-25T06:26:22.703Z,13.53
2019-02-25T07:03:36.711Z,12.50
2019-02-25T07:06:31.400Z,13.20
2019-02-25T07:09:21.898Z,13.93
2019-02-25T07:12:16.116Z,12.60
2019-02-25T07:15:13.510Z,12.00
2019-02-25T07:18:06.917Z,12.13
2019-02-25T07:21:01.664Z,12.90
2019-02-25T07:23:43.172Z,12.03
2019-02-25T07:26:43.778Z,12.43
2019-02-25T07:29:35.093Z,12.47
2019-02-25T07:32:30.375Z,13.07
2019-02-25T07:35:38.691Z,13.90
2019-02-25T07:38:39.165Z,12.27
2019-02-25T07:41:30.854Z,12.90
2019-02-25T07:44:28.513Z,12.77
2019-02-25T07:47:20.166Z,12.40
2019-02-25T07:50:15.578Z,12.57
2019-02-25T07:52:52.700Z,12.93
2019-02-25T07:55:44.151Z,13.10
2019-02-25T07:58:31.094Z,12.93
2019-02-25T08:01:12.938Z,12.67
2019-02-25T08:03:58.812Z,12.23
2019-02-25T08:06:35.197Z,12.43
2019-02-25T08:09:29.687Z,12.30
2019-02-25T08:12:07.798Z,11.57
2019-02-25T08:15:02.281Z,11.80
2019-02-25T08:17:50.890Z,12.43
2019-02-25T08:20:30.485Z,12.53
2019-02-25T08:23:22.258Z,13.03
2019-02-25T08:26:00.820Z,10.60
2019-02-25T08:28:49.672Z,12.20
2019-02-25T08:31:36.807Z,11.87
2019-02-25T08:34:41.257Z,11.97
2019-02-25T08:37:46.363Z,12.33
2019-02-25T08:40:55.223Z,11.70
2019-02-25T08:43:39.102Z,11.83
2019-02-25T08:46:17.758Z,10.73
2019-02-25T08:48:55.131Z,12.37
2019-02-25T08:51:24.625Z,11.93
2019-02-25T08:53:56.469Z,13.17
2019-02-25T08:56:26.078Z,11.77
2019-02-25T08:58:56.304Z,12.50
2019-02-25T09:01:25.820Z,11.47
2019-02-25T09:03:55.782Z,12.43
2019-02-25T09:06:25.578Z,12.67
2019-02-25T09:08:55.120Z,12.93
2019-02-25T09:11:24.717Z,12.13
2019-02-25T09:13:54.238Z,12.77
2019-02-25T09:16:48.645Z,12.70
2019-02-25T09:19:18.832Z,12.17
2019-02-25T09:21:48.372Z,12.43
2019-02-25T09:24:17.911Z,13.00
2019-02-25T09:26:47.439Z,12.27
2019-02-25T09:29:17.116Z,12.23
2019-02-25T09:31:47.068Z,11.20
2019-02-25T09:34:19.494Z,11.80
2019-02-25T09:36:50.477Z,11.07
2019-02-25T09:39:20.143Z,11.27
2019-02-25T09:41:55.024Z,11.73
2019-02-25T09:44:24.785Z,10.70
2019-02-25T09:47:02.564Z,12.90
2019-02-25T09:49:29.869Z,12.03
2019-02-25T09:52:06.433Z,11.20
2019-02-25T09:54:39.764Z,10.90
2019-02-25T09:57:09.510Z,9.63
2019-02-25T09:59:41.842Z,10.77
2019-02-25T10:02:11.619Z,10.97
2019-02-25T10:04:48.642Z,11.00
2019-02-25T10:07:18.283Z,10.90
2019-02-25T10:09:57.890Z,11.10
2019-02-25T10:12:30.251Z,10.17
2019-02-25T10:15:01.052Z,10.53
2019-02-25T10:17:30.547Z,10.47
2019-02-25T10:20:00.221Z,10.20
2019-02-25T10:22:32.807Z,10.50
2019-02-25T10:25:06.487Z,10.70
2019-02-25T10:27:37.659Z,10.67
2019-02-25T10:30:09.963Z,10.03
2019-02-25T10:32:43.672Z,9.80
2019-02-25T10:35:17.975Z,8.67
2019-02-25T10:37:47.488Z,7.33
2019-02-25T10:40:24.465Z,8.60
2019-02-25T10:42:51.918Z,7.90
2019-02-25T10:45:23.579Z,7.93
2019-02-25T10:47:58.426Z,8.20
2019-02-25T10:50:33.481Z,7.13
2019-02-25T10:53:15.478Z,8.10
2019-02-25T10:55:53.011Z,6.50
2019-02-25T10:58:25.199Z,6.03
2019-02-25T11:00:55.266Z,5.83
2019-02-25T11:03:24.741Z,6.97
2019-02-25T11:05:56.202Z,6.83
2019-02-25T11:08:28.252Z,6.97
2019-02-25T11:11:04.252Z,6.07
2019-02-25T11:13:34.654Z,6.70
2019-02-25T11:16:05.618Z,7.30
2019-02-25T11:18:35.653Z,6.40
2019-02-25T11:21:06.147Z,6.57
2019-02-25T11:23:37.449Z,6.57
2019-02-25T11:26:16.111Z,6.80
2019-02-25T11:28:46.194Z,7.07
2019-02-25T11:31:18.152Z,6.33
2019-02-25T11:33:50.742Z,6.10
2019-02-25T11:36:21.999Z,6.63
2019-02-25T11:38:51.809Z,6.80
2019-02-25T11:41:21.355Z,6.00
2019-02-25T11:43:52.806Z,5.53
2019-02-25T11:46:25.285Z,6.03
2019-02-25T11:48:54.866Z,5.60
2019-02-25T11:51:27.535Z,5.60
2019-02-25T11:54:02.747Z,5.27
2019-02-25T11:56:33.697Z,5.37
2019-02-25T11:59:14.891Z,6.00
2019-02-25T12:01:48.318Z,5.53
2019-02-25T12:04:20.516Z,5.63
2019-02-25T12:06:58.189Z,5.60
2019-02-25T12:09:36.474Z,5.30
2019-02-25T12:12:06.268Z,5.03
2019-02-25T12:14:36.352Z,5.50
2019-02-25T12:17:05.854Z,5.03
2019-02-25T12:19:36.359Z,5.47
2019-02-25T12:22:07.580Z,5.47
2019-02-25T12:24:37.333Z,5.67
2019-02-25T12:27:12.715Z,5.40
2019-02-25T12:29:44.762Z,5.47
2019-02-25T12:32:14.592Z,4.90
2019-02-25T12:34:47.210Z,4.70
2019-02-25T12:37:16.923Z,4.60
2019-02-25T12:39:47.320Z,5.30
2019-02-25T12:42:20.613Z,4.73
2019-02-25T12:44:52.385Z,4.10
2019-02-25T12:47:24.190Z,4.97
2019-02-25T12:49:54.656Z,4.83
2019-02-25T12:52:24.332Z,5.07
2019-02-25T12:54:54.298Z,4.50
2019-02-25T12:57:24.671Z,5.53
2019-02-25T12:59:54.994Z,5.57
2019-02-25T13:02:24.848Z,4.80
2019-02-25T13:04:56.764Z,5.03
2019-02-25T13:07:27.923Z,5.10
2019-02-25T13:09:59.064Z,5.60
2019-02-25T13:12:51.710Z,5.00
2019-02-25T13:15:22.153Z,4.93
2019-02-25T13:17:52.719Z,5.23
2019-02-25T13:20:29.514Z,5.60
2019-02-25T13:23:32.380Z,5.63
2019-02-25T13:26:31.672Z,5.77
2019-02-25T13:36:25.146Z,5.43
2019-02-25T13:38:55.106Z,5.73
2019-02-25T13:41:52.685Z,5.37
2019-02-25T14:16:19.658Z,5.70
2019-02-25T14:18:59.312Z,6.70
2019-02-25T17:30:20.213Z,7.67
2019-02-25T17:32:51.085Z,7.43
2019-02-25T17:35:23.558Z,7.57
2019-02-25T17:37:58.904Z,7.97
2019-02-25T17:40:31.505Z,7.30
2019-02-25T17:43:01.150Z,8.47
2019-02-25T17:45:32.451Z,9.10
2019-02-25T17:48:05.407Z,8.48
2019-02-25T17:50:35.339Z,8.63
2019-02-25T17:53:09.434Z,7.60
2019-02-25T17:55:39.548Z,9.53
2019-02-25T17:58:09.489Z,8.73
2019-02-25T18:00:42.304Z,8.50
2019-02-25T18:03:11.625Z,8.43
2019-02-25T18:05:44.008Z,8.00
2019-02-25T18:08:15.390Z,8.43
2019-02-25T18:10:45.322Z,9.33
2019-02-25T18:13:15.725Z,10.57
2019-02-25T18:15:47.667Z,10.07
2019-02-25T18:18:17.715Z,10.20
2019-02-25T18:20:53.044Z,11.07
2019-02-25T18:23:21.930Z,11.70
2019-02-25T18:25:53.590Z,11.97
2019-02-25T18:28:23.803Z,10.13
2019-02-25T18:30:53.666Z,11.10
2019-02-25T18:33:26.886Z,10.80
2019-02-25T18:35:57.980Z,10.30
2019-02-25T18:38:31.844Z,10.47
2019-02-25T18:41:02.430Z,11.57
2019-02-25T18:43:33.158Z,14.30
2019-02-25T18:46:04.924Z,12.07
2019-02-25T18:48:34.267Z,10.87
2019-02-25T18:51:07.071Z,11.77
2019-02-25T18:53:40.752Z,11.80
2019-02-25T18:56:11.851Z,12.73
2019-02-25T18:58:42.355Z,11.60
2019-02-25T19:01:13.317Z,11.47
2019-02-25T19:03:46.304Z,11.77
2019-02-25T19:06:17.595Z,12.80
2019-02-25T19:08:49.389Z,11.97
2019-02-25T19:11:21.364Z,10.90
2019-02-25T19:13:53.958Z,11.77
2019-02-25T19:16:24.680Z,10.07
2019-02-25T19:18:54.782Z,10.57
2019-02-25T19:21:27.746Z,10.33
2019-02-25T19:23:58.138Z,11.60
2019-02-25T19:26:28.331Z,12.33
2019-02-25T19:28:59.118Z,11.63
2019-02-25T19:31:31.491Z,11.60
2019-02-25T19:34:01.446Z,13.37
2019-02-25T19:36:32.517Z,14.30
2019-02-25T19:39:09.366Z,14.20
2019-02-25T19:41:45.031Z,12.63
2019-02-25T19:44:12.754Z,12.00
2019-02-25T19:46:45.669Z,13.53
2019-02-25T19:49:18.118Z,12.50
2019-02-25T19:51:50.198Z,12.97
2019-02-25T19:54:21.134Z,13.97
2019-02-25T19:56:53.194Z,15.40
2019-02-25T19:59:28.469Z,15.17
2019-02-25T20:01:57.561Z,15.27
2019-02-25T20:04:27.291Z,13.47
2019-02-25T20:06:58.517Z,14.57
2019-02-25T20:09:28.359Z,16.90
2019-02-25T20:12:03.297Z,16.40
2019-02-25T20:14:32.924Z,13.07
2019-02-25T20:17:02.766Z,14.50
2019-02-25T20:19:32.459Z,15.00
2019-02-25T20:22:05.510Z,13.90
2019-02-25T20:24:35.351Z,14.03
2019-02-25T20:27:07.493Z,13.00
2019-02-25T20:29:37.830Z,13.80
2019-02-25T20:32:10.187Z,13.47
2019-02-25T20:34:40.744Z,14.27
2019-02-25T20:37:13.047Z,12.63
2019-02-25T20:39:44.600Z,13.50
2019-02-25T20:42:17.317Z,13.63
2019-02-25T20:44:46.697Z,13.53
2019-02-25T20:47:28.510Z,15.07
2019-02-25T20:49:54.170Z,13.67
2019-02-25T20:52:27.456Z,13.73
2019-02-25T20:54:57.155Z,13.83
2019-02-25T20:57:26.823Z,13.77
2019-02-25T20:59:59.015Z,14.43
2019-02-25T21:02:28.456Z,12.63
2019-02-25T21:04:58.454Z,13.17
2019-02-25T21:07:31.737Z,13.43
2019-02-25T21:10:07.511Z,13.17
2019-02-25T21:12:38.212Z,13.03
2019-02-25T21:15:11.245Z,13.90
2019-02-25T21:17:40.690Z,14.03
2019-02-25T21:20:16.401Z,13.37
2019-02-25T21:22:48.088Z,14.13
2019-02-25T21:25:22.071Z,14.00
2019-02-25T21:27:49.333Z,14.27
2019-02-25T21:30:22.996Z,14.33
2019-02-25T21:32:54.329Z,14.87
2019-02-25T21:35:27.585Z,14.07
2019-02-25T21:37:55.857Z,15.23
2019-02-25T21:40:38.431Z,15.40
2019-02-25T21:43:14.386Z,13.47
2019-02-25T21:45:46.108Z,14.13
2019-02-25T21:48:16.186Z,14.00
2019-02-25T21:50:45.838Z,14.37
2019-02-25T21:53:16.045Z,14.43
2019-02-25T21:55:46.970Z,14.63
2019-02-25T21:58:18.441Z,13.97
2019-02-25T22:00:48.151Z,13.27
2019-02-25T22:03:20.160Z,14.07
2019-02-25T22:05:54.090Z,13.37
2019-02-25T22:08:24.452Z,13.67
2019-02-25T22:10:58.244Z,14.47
2019-02-25T22:13:27.679Z,12.67
2019-02-25T22:16:01.804Z,14.03
2019-02-25T22:18:32.521Z,14.50
2019-02-25T22:21:05.133Z,13.40
2019-02-25T22:23:35.449Z,14.00
2019-02-25T22:26:09.540Z,14.70
2019-02-25T22:28:39.465Z,13.90
2019-02-25T22:31:10.972Z,14.07
2019-02-25T22:33:43.568Z,14.60
2019-02-25T22:36:13.363Z,15.17
2019-02-25T22:38:42.922Z,14.93
2019-02-25T22:41:16.756Z,13.70
2019-02-25T22:43:48.203Z,15.13
2019-02-25T22:46:18.902Z,15.07
2019-02-25T22:48:50.946Z,15.20
2019-02-25T22:51:22.247Z,13.47
2019-02-25T22:53:52.223Z,14.30
2019-02-25T22:56:23.695Z,14.20
2019-02-25T22:58:59.976Z,14.23
2019-02-25T23:01:36.836Z,16.00
2019-02-25T23:04:06.437Z,15.87
2019-02-25T23:06:42.431Z,14.93
2019-02-25T23:09:14.384Z,14.00
2019-02-25T23:11:45.939Z,14.67
2019-02-25T23:14:16.269Z,13.87
2019-02-25T23:16:47.937Z,14.63
2019-02-25T23:19:18.082Z,13.63
2019-02-25T23:21:48.676Z,14.07
2019-02-25T23:24:21.806Z,15.50
2019-02-25T23:26:53.040Z,14.60
2019-02-25T23:29:26.670Z,14.73
2019-02-25T23:31:53.725Z,14.47
2019-02-25T23:34:23.188Z,13.57
2019-02-25T23:36:54.405Z,13.80
2019-02-25T23:39:24.016Z,14.27
2019-02-25T23:41:56.219Z,15.33
2019-02-25T23:44:26.228Z,13.57
2019-02-25T23:46:59.669Z,14.23
2019-02-25T23:49:27.745Z,14.50
2019-02-25T23:51:57.228Z,14.77
2019-02-25T23:54:28.032Z,15.30
2019-02-25T23:57:02.016Z,15.57
2019-02-25T23:59:31.906Z,14.60
